KAXS/AXS METAR and TAF weather

Enter ICAO airport designator
Station Type Date Time Source
KAXS METAR 2019/08/22 15:35 UTC NOAA

KAXS 221535Z AUTO 10010KT 4SM HZ CLR 30/19 A2997 RMK AO2 T03010187


Station Type Date Time Source
KAXS Decoded METAR 2019/08/22 15:35 UTC NOAA

Station name not available
Aug 22, 2019 - 11:35 AM EDT / 2019.08.22 1535 UTC
Wind: from the E (100 degrees) at 12 MPH (10 KT):0
Visibility: 4 mile(s):0
Sky conditions: clear
Weather: haze
Temperature: 86.2 F (30.1 C)
Dew Point: 65.7 F (18.7 C)
Relative Humidity: 50%
Pressure (altimeter): 29.97 in. Hg (1014 hPa)
ob: KAXS 221535Z AUTO 10010KT 4SM HZ CLR 30/19 A2997 RMK AO2 T03010187
cycle: 15

Station Type Date Time Source
KAXS TAF UTC NOAA

Error!

Example: see airport list